TOM9521 EGPF-EGBB
Flight info
| Callsign | TOM9521 |
|---|---|
| Flight time | 0h 55m |
| Altitude | 25000 |
| Route | NORBO T256 DCS L612 VAMEB UL612 CROFT |
| Aircraft | B738/M-SDE2E3FGHIRWXY/LB1 |
Departure
| Time | 2026-05-07 13:41 |
|---|---|
| Airport | Glasgow Airport (EGPF) |
Arrival
| Time | 2026-05-07 14:36 |
|---|---|
| Airport | Birmingham Airport (EGBB) |
| Time | Latitude | Longitude | Altitude | Speed | Heading |
|---|---|---|---|---|---|
| 2026-05-07 12:45 | 55.86675 | -4.43328 | 27 ft | 0 kts | 254° |
| 2026-05-07 13:31 | 55.86678 | -4.43309 | 28 ft | 4 kts | 259° |
| 2026-05-07 13:31 | 55.86678 | -4.43264 | 28 ft | 4 kts | 293° |
| 2026-05-07 13:32 | 55.86663 | -4.43232 | 28 ft | 3 kts | 340° |
| 2026-05-07 13:32 | 55.86661 | -4.43231 | 28 ft | 0 kts | 342° |
| 2026-05-07 13:36 | 55.86686 | -4.43245 | 28 ft | 7 kts | 342° |
| 2026-05-07 13:36 | 55.86754 | -4.43280 | 28 ft | 14 kts | 344° |
| 2026-05-07 13:36 | 55.86821 | -4.43205 | 28 ft | 14 kts | 76° |
| 2026-05-07 13:36 | 55.86851 | -4.43014 | 28 ft | 18 kts | 72° |
| 2026-05-07 13:37 | 55.86941 | -4.42902 | 28 ft | 17 kts | 27° |
| 2026-05-07 13:37 | 55.87058 | -4.42810 | 28 ft | 18 kts | 20° |
| 2026-05-07 13:37 | 55.87185 | -4.42731 | 28 ft | 21 kts | 22° |
| 2026-05-07 13:37 | 55.87330 | -4.42635 | 28 ft | 24 kts | 17° |
| 2026-05-07 13:38 | 55.87460 | -4.42460 | 28 ft | 24 kts | 48° |
| 2026-05-07 13:38 | 55.87582 | -4.42231 | 28 ft | 26 kts | 46° |
| 2026-05-07 13:38 | 55.87680 | -4.42152 | 28 ft | 15 kts | 353° |
| 2026-05-07 13:38 | 55.87748 | -4.42245 | 28 ft | 11 kts | 282° |
| 2026-05-07 13:39 | 55.87714 | -4.42359 | 28 ft | 9 kts | 225° |
| 2026-05-07 13:39 | 55.87705 | -4.42376 | 28 ft | 0 kts | 226° |
| 2026-05-07 13:40 | 55.87670 | -4.42440 | 28 ft | 27 kts | 225° |
| 2026-05-07 13:40 | 55.87332 | -4.43068 | 28 ft | 110 kts | 226° |
| 2026-05-07 13:40 | 55.86698 | -4.44346 | 289 ft | 149 kts | 226° |
| 2026-05-07 13:41 | 55.86048 | -4.45687 | 1261 ft | 140 kts | 223° |
| 2026-05-07 13:41 | 55.85382 | -4.46832 | 2314 ft | 135 kts | 221° |
| 2026-05-07 13:41 | 55.84654 | -4.48057 | 2911 ft | 162 kts | 222° |
| 2026-05-07 13:41 | 55.83749 | -4.49618 | 3207 ft | 194 kts | 223° |
| 2026-05-07 13:42 | 55.82736 | -4.51383 | 3469 ft | 219 kts | 223° |
| 2026-05-07 13:42 | 55.81598 | -4.53380 | 3886 ft | 238 kts | 224° |
| 2026-05-07 13:42 | 55.80407 | -4.55481 | 4859 ft | 240 kts | 224° |
| 2026-05-07 13:42 | 55.79236 | -4.57552 | 5589 ft | 242 kts | 224° |
| 2026-05-07 13:43 | 55.78045 | -4.59660 | 5953 ft | 243 kts | 223° |
| 2026-05-07 13:43 | 55.76857 | -4.61765 | 5984 ft | 239 kts | 223° |
| 2026-05-07 13:43 | 55.75671 | -4.63862 | 5993 ft | 242 kts | 223° |
| 2026-05-07 13:43 | 55.74466 | -4.65989 | 6004 ft | 246 kts | 223° |
| 2026-05-07 13:44 | 55.73247 | -4.68142 | 5995 ft | 248 kts | 223° |
| 2026-05-07 13:44 | 55.72009 | -4.70282 | 5983 ft | 248 kts | 222° |
| 2026-05-07 13:44 | 55.70763 | -4.72392 | 5980 ft | 247 kts | 222° |
| 2026-05-07 13:44 | 55.69457 | -4.74339 | 5965 ft | 246 kts | 211° |
| 2026-05-07 13:45 | 55.67890 | -4.75528 | 5974 ft | 245 kts | 198° |
| 2026-05-07 13:45 | 55.66206 | -4.76028 | 5976 ft | 247 kts | 186° |
| 2026-05-07 13:45 | 55.64491 | -4.76115 | 5978 ft | 247 kts | 183° |
| 2026-05-07 13:45 | 55.63331 | -4.76139 | 5982 ft | 246 kts | 183° |
| 2026-05-07 13:46 | 55.61617 | -4.76177 | 5976 ft | 246 kts | 184° |
| 2026-05-07 13:46 | 55.59905 | -4.75930 | 5962 ft | 251 kts | 166° |
| 2026-05-07 13:46 | 55.58327 | -4.74502 | 6184 ft | 261 kts | 149° |
| 2026-05-07 13:46 | 55.56900 | -4.72545 | 7131 ft | 264 kts | 146° |
| 2026-05-07 13:47 | 55.55475 | -4.70463 | 8109 ft | 268 kts | 145° |
| 2026-05-07 13:47 | 55.54023 | -4.68333 | 9086 ft | 274 kts | 145° |
| 2026-05-07 13:47 | 55.52535 | -4.66162 | 10055 ft | 280 kts | 145° |
| 2026-05-07 13:47 | 55.51009 | -4.63953 | 10913 ft | 288 kts | 145° |
| 2026-05-07 13:48 | 55.49438 | -4.61691 | 11854 ft | 294 kts | 146° |
| 2026-05-07 13:48 | 55.47839 | -4.59399 | 12869 ft | 298 kts | 146° |
| 2026-05-07 13:48 | 55.46217 | -4.57078 | 13890 ft | 304 kts | 146° |
| 2026-05-07 13:48 | 55.44562 | -4.54716 | 14844 ft | 308 kts | 146° |
| 2026-05-07 13:49 | 55.42891 | -4.52335 | 15868 ft | 310 kts | 145° |
| 2026-05-07 13:49 | 55.41204 | -4.49937 | 16887 ft | 314 kts | 145° |
| 2026-05-07 13:49 | 55.39492 | -4.47508 | 17863 ft | 319 kts | 145° |
| 2026-05-07 13:49 | 55.37752 | -4.45044 | 18763 ft | 323 kts | 144° |
| 2026-05-07 13:50 | 55.35991 | -4.42553 | 19622 ft | 327 kts | 145° |
| 2026-05-07 13:50 | 55.34214 | -4.40039 | 20513 ft | 330 kts | 145° |
| 2026-05-07 13:50 | 55.32416 | -4.37501 | 21395 ft | 333 kts | 145° |
| 2026-05-07 13:50 | 55.30597 | -4.34935 | 22262 ft | 337 kts | 145° |
| 2026-05-07 13:51 | 55.28759 | -4.32344 | 23094 ft | 342 kts | 145° |
| 2026-05-07 13:51 | 55.26890 | -4.29713 | 23847 ft | 346 kts | 145° |
| 2026-05-07 13:51 | 55.25002 | -4.27057 | 24525 ft | 351 kts | 145° |
| 2026-05-07 13:51 | 55.23089 | -4.24367 | 24879 ft | 353 kts | 145° |
| 2026-05-07 13:52 | 55.21178 | -4.21684 | 24953 ft | 353 kts | 145° |
| 2026-05-07 13:52 | 55.19263 | -4.19001 | 24949 ft | 352 kts | 145° |
| 2026-05-07 13:52 | 55.17376 | -4.16281 | 24962 ft | 352 kts | 141° |
| 2026-05-07 13:52 | 55.15643 | -4.13238 | 24977 ft | 354 kts | 137° |
| 2026-05-07 13:53 | 55.13971 | -4.10083 | 24979 ft | 354 kts | 136° |
| 2026-05-07 13:53 | 55.12326 | -4.06974 | 24974 ft | 354 kts | 137° |
| 2026-05-07 13:53 | 55.10642 | -4.03830 | 24974 ft | 354 kts | 137° |
| 2026-05-07 13:53 | 55.08951 | -4.00701 | 24980 ft | 354 kts | 137° |
| 2026-05-07 13:54 | 55.07256 | -3.97578 | 24977 ft | 355 kts | 137° |
| 2026-05-07 13:54 | 55.05556 | -3.94455 | 24972 ft | 355 kts | 137° |
| 2026-05-07 13:54 | 55.03856 | -3.91339 | 24984 ft | 355 kts | 137° |
| 2026-05-07 13:54 | 55.02155 | -3.88225 | 24983 ft | 355 kts | 137° |
| 2026-05-07 13:55 | 55.00453 | -3.85114 | 24984 ft | 355 kts | 137° |
| 2026-05-07 13:55 | 54.98749 | -3.82000 | 24987 ft | 355 kts | 137° |
| 2026-05-07 13:55 | 54.97047 | -3.78895 | 24978 ft | 355 kts | 137° |
| 2026-05-07 13:55 | 54.95338 | -3.75783 | 24982 ft | 356 kts | 137° |
| 2026-05-07 13:56 | 54.93627 | -3.72674 | 24985 ft | 356 kts | 137° |
| 2026-05-07 13:56 | 54.91917 | -3.69573 | 24995 ft | 356 kts | 137° |
| 2026-05-07 13:56 | 54.90201 | -3.66465 | 24991 ft | 356 kts | 137° |
| 2026-05-07 13:56 | 54.88489 | -3.63369 | 24997 ft | 356 kts | 137° |
| 2026-05-07 13:57 | 54.86774 | -3.60269 | 24990 ft | 356 kts | 137° |
| 2026-05-07 13:57 | 54.85057 | -3.57170 | 24990 ft | 355 kts | 137° |
| 2026-05-07 13:57 | 54.83346 | -3.54086 | 24992 ft | 355 kts | 137° |
| 2026-05-07 13:57 | 54.81635 | -3.51004 | 24994 ft | 354 kts | 137° |
| 2026-05-07 13:58 | 54.79926 | -3.47929 | 25000 ft | 354 kts | 137° |
| 2026-05-07 13:58 | 54.78218 | -3.44859 | 25002 ft | 354 kts | 137° |
| 2026-05-07 13:58 | 54.76509 | -3.41793 | 25003 ft | 353 kts | 137° |
| 2026-05-07 13:58 | 54.74801 | -3.38734 | 25003 ft | 353 kts | 137° |
| 2026-05-07 13:59 | 54.73060 | -3.35746 | 24997 ft | 352 kts | 143° |
| 2026-05-07 13:59 | 54.71087 | -3.33296 | 25007 ft | 348 kts | 153° |
| 2026-05-07 13:59 | 54.68921 | -3.31472 | 25011 ft | 345 kts | 159° |
| 2026-05-07 13:59 | 54.66712 | -3.29836 | 25003 ft | 345 kts | 159° |
| 2026-05-07 14:00 | 54.64500 | -3.28219 | 25004 ft | 346 kts | 159° |
| 2026-05-07 14:00 | 54.62289 | -3.26594 | 25009 ft | 345 kts | 159° |
| 2026-05-07 14:00 | 54.60078 | -3.24956 | 25019 ft | 346 kts | 159° |
| 2026-05-07 14:00 | 54.57871 | -3.23312 | 25018 ft | 346 kts | 159° |
| 2026-05-07 14:01 | 54.55660 | -3.21659 | 25005 ft | 346 kts | 159° |
| 2026-05-07 14:01 | 54.53451 | -3.20009 | 25008 ft | 346 kts | 159° |
| 2026-05-07 14:01 | 54.51241 | -3.18359 | 25015 ft | 346 kts | 159° |
| 2026-05-07 14:01 | 54.49031 | -3.16713 | 25018 ft | 347 kts | 159° |
| 2026-05-07 14:02 | 54.46840 | -3.15084 | 25019 ft | 347 kts | 159° |
| 2026-05-07 14:02 | 54.44597 | -3.13419 | 25019 ft | 347 kts | 158° |
| 2026-05-07 14:02 | 54.42408 | -3.11795 | 25012 ft | 347 kts | 158° |
| 2026-05-07 14:02 | 54.40191 | -3.10152 | 25021 ft | 347 kts | 159° |
| 2026-05-07 14:03 | 54.37972 | -3.08508 | 25024 ft | 348 kts | 158° |
| 2026-05-07 14:03 | 54.35750 | -3.06865 | 25022 ft | 348 kts | 158° |
| 2026-05-07 14:03 | 54.33525 | -3.05222 | 25014 ft | 348 kts | 158° |
| 2026-05-07 14:03 | 54.31271 | -3.03558 | 25019 ft | 348 kts | 158° |
| 2026-05-07 14:04 | 54.29052 | -3.01921 | 25027 ft | 348 kts | 158° |
| 2026-05-07 14:04 | 54.26829 | -3.00285 | 25025 ft | 348 kts | 159° |
| 2026-05-07 14:04 | 54.24666 | -2.98695 | 25020 ft | 348 kts | 159° |
| 2026-05-07 14:04 | 54.22447 | -2.97066 | 25024 ft | 347 kts | 159° |
| 2026-05-07 14:05 | 54.20228 | -2.95439 | 25023 ft | 347 kts | 158° |
| 2026-05-07 14:05 | 54.18036 | -2.93835 | 25024 ft | 347 kts | 158° |
| 2026-05-07 14:05 | 54.15820 | -2.92213 | 25029 ft | 347 kts | 158° |
| 2026-05-07 14:05 | 54.13602 | -2.90592 | 25025 ft | 347 kts | 158° |
| 2026-05-07 14:06 | 54.11386 | -2.88974 | 25026 ft | 346 kts | 158° |
| 2026-05-07 14:06 | 54.09171 | -2.87359 | 25029 ft | 346 kts | 158° |
| 2026-05-07 14:06 | 54.06957 | -2.85745 | 25029 ft | 346 kts | 158° |
| 2026-05-07 14:06 | 54.04709 | -2.84109 | 25028 ft | 346 kts | 158° |
| 2026-05-07 14:07 | 54.02523 | -2.82520 | 25027 ft | 346 kts | 158° |
| 2026-05-07 14:07 | 54.00279 | -2.80892 | 25031 ft | 346 kts | 158° |
| 2026-05-07 14:07 | 53.98063 | -2.79284 | 25028 ft | 347 kts | 158° |
| 2026-05-07 14:07 | 53.95846 | -2.77677 | 25028 ft | 346 kts | 158° |
| 2026-05-07 14:08 | 53.93627 | -2.76071 | 25028 ft | 347 kts | 158° |
| 2026-05-07 14:08 | 53.91410 | -2.74468 | 25032 ft | 347 kts | 158° |
| 2026-05-07 14:08 | 53.89188 | -2.72865 | 25033 ft | 347 kts | 158° |
| 2026-05-07 14:08 | 53.86963 | -2.71262 | 25033 ft | 348 kts | 158° |
| 2026-05-07 14:09 | 53.84738 | -2.69660 | 25032 ft | 348 kts | 158° |
| 2026-05-07 14:09 | 53.82512 | -2.68058 | 25032 ft | 348 kts | 158° |
| 2026-05-07 14:09 | 53.80313 | -2.66479 | 25030 ft | 348 kts | 158° |
| 2026-05-07 14:09 | 53.78086 | -2.64881 | 25030 ft | 348 kts | 158° |
| 2026-05-07 14:10 | 53.75856 | -2.63284 | 25030 ft | 348 kts | 158° |
| 2026-05-07 14:10 | 53.73629 | -2.61691 | 25028 ft | 348 kts | 158° |
| 2026-05-07 14:10 | 53.71369 | -2.60075 | 25019 ft | 348 kts | 158° |
| 2026-05-07 14:10 | 53.69145 | -2.58486 | 25018 ft | 348 kts | 158° |
| 2026-05-07 14:11 | 53.66946 | -2.56916 | 25027 ft | 347 kts | 158° |
| 2026-05-07 14:11 | 53.64720 | -2.55331 | 25031 ft | 348 kts | 158° |
| 2026-05-07 14:11 | 53.62491 | -2.53724 | 25032 ft | 348 kts | 156° |
| 2026-05-07 14:11 | 53.60354 | -2.51779 | 25037 ft | 350 kts | 150° |
| 2026-05-07 14:12 | 53.58288 | -2.49620 | 25035 ft | 350 kts | 149° |
| 2026-05-07 14:12 | 53.56233 | -2.47413 | 24910 ft | 353 kts | 149° |
| 2026-05-07 14:12 | 53.54153 | -2.45194 | 24499 ft | 353 kts | 149° |
| 2026-05-07 14:12 | 53.52069 | -2.43002 | 23999 ft | 354 kts | 149° |
| 2026-05-07 14:13 | 53.49970 | -2.40820 | 23404 ft | 355 kts | 150° |
| 2026-05-07 14:13 | 53.47859 | -2.38645 | 22790 ft | 356 kts | 150° |
| 2026-05-07 14:13 | 53.45754 | -2.36486 | 22291 ft | 353 kts | 150° |
| 2026-05-07 14:13 | 53.43689 | -2.34343 | 21866 ft | 350 kts | 149° |
| 2026-05-07 14:14 | 53.41666 | -2.32146 | 21525 ft | 342 kts | 154° |
| 2026-05-07 14:14 | 53.39417 | -2.30963 | 20585 ft | 349 kts | 167° |
| 2026-05-07 14:14 | 53.37177 | -2.29379 | 20120 ft | 350 kts | 146° |
| 2026-05-07 14:14 | 53.35263 | -2.26977 | 20093 ft | 341 kts | 146° |
| 2026-05-07 14:15 | 53.33308 | -2.24687 | 19690 ft | 344 kts | 148° |
| 2026-05-07 14:15 | 53.31316 | -2.22520 | 19364 ft | 339 kts | 150° |
| 2026-05-07 14:15 | 53.29310 | -2.20475 | 19033 ft | 336 kts | 151° |
| 2026-05-07 14:15 | 53.27296 | -2.18513 | 18710 ft | 333 kts | 152° |
| 2026-05-07 14:16 | 53.25289 | -2.16613 | 18396 ft | 331 kts | 153° |
| 2026-05-07 14:16 | 53.23288 | -2.14747 | 18037 ft | 328 kts | 153° |
| 2026-05-07 14:16 | 53.21299 | -2.12907 | 17693 ft | 326 kts | 153° |
| 2026-05-07 14:16 | 53.19320 | -2.11085 | 17372 ft | 323 kts | 153° |
| 2026-05-07 14:17 | 53.17357 | -2.09282 | 17045 ft | 321 kts | 153° |
| 2026-05-07 14:17 | 53.15411 | -2.07497 | 16746 ft | 318 kts | 153° |
| 2026-05-07 14:17 | 53.13479 | -2.05727 | 16454 ft | 316 kts | 153° |
| 2026-05-07 14:17 | 53.11553 | -2.03963 | 16148 ft | 315 kts | 153° |
| 2026-05-07 14:18 | 53.09640 | -2.02213 | 15843 ft | 313 kts | 153° |
| 2026-05-07 14:18 | 53.07737 | -2.00474 | 15549 ft | 312 kts | 153° |
| 2026-05-07 14:18 | 53.05904 | -1.98799 | 15262 ft | 311 kts | 153° |
| 2026-05-07 14:18 | 53.03956 | -1.97309 | 14951 ft | 308 kts | 167° |
| 2026-05-07 14:19 | 53.01842 | -1.96880 | 14694 ft | 305 kts | 176° |
| 2026-05-07 14:19 | 52.99733 | -1.96620 | 14396 ft | 305 kts | 176° |
| 2026-05-07 14:19 | 52.97620 | -1.96371 | 14104 ft | 304 kts | 176° |
| 2026-05-07 14:19 | 52.95537 | -1.96120 | 13817 ft | 304 kts | 176° |
| 2026-05-07 14:20 | 52.93401 | -1.95856 | 13496 ft | 304 kts | 176° |
| 2026-05-07 14:20 | 52.91293 | -1.95590 | 13182 ft | 303 kts | 176° |
| 2026-05-07 14:20 | 52.89228 | -1.95325 | 12894 ft | 302 kts | 176° |
| 2026-05-07 14:20 | 52.87138 | -1.95055 | 12602 ft | 301 kts | 176° |
| 2026-05-07 14:21 | 52.85055 | -1.94786 | 12315 ft | 300 kts | 176° |
| 2026-05-07 14:21 | 52.82976 | -1.94517 | 12021 ft | 299 kts | 176° |
| 2026-05-07 14:21 | 52.80904 | -1.94249 | 11738 ft | 298 kts | 176° |
| 2026-05-07 14:21 | 52.78837 | -1.93981 | 11455 ft | 298 kts | 176° |
| 2026-05-07 14:22 | 52.76770 | -1.93712 | 11171 ft | 298 kts | 176° |
| 2026-05-07 14:22 | 52.74721 | -1.93445 | 10879 ft | 293 kts | 176° |
| 2026-05-07 14:22 | 52.72713 | -1.93184 | 10601 ft | 286 kts | 176° |
| 2026-05-07 14:22 | 52.70746 | -1.92929 | 10330 ft | 281 kts | 176° |
| 2026-05-07 14:23 | 52.68818 | -1.92679 | 10070 ft | 276 kts | 176° |
| 2026-05-07 14:23 | 52.66936 | -1.92436 | 9926 ft | 266 kts | 176° |
| 2026-05-07 14:23 | 52.65083 | -1.92196 | 9557 ft | 266 kts | 176° |
| 2026-05-07 14:23 | 52.63254 | -1.91959 | 9275 ft | 262 kts | 176° |
| 2026-05-07 14:24 | 52.61451 | -1.91738 | 9016 ft | 257 kts | 179° |
| 2026-05-07 14:24 | 52.59704 | -1.92130 | 8826 ft | 250 kts | 194° |
| 2026-05-07 14:24 | 52.58035 | -1.92818 | 8647 ft | 245 kts | 193° |
| 2026-05-07 14:24 | 52.56388 | -1.93440 | 8248 ft | 246 kts | 186° |
| 2026-05-07 14:25 | 52.54685 | -1.92822 | 7565 ft | 263 kts | 152° |
| 2026-05-07 14:25 | 52.53015 | -1.91451 | 6849 ft | 275 kts | 166° |
| 2026-05-07 14:25 | 52.51087 | -1.91338 | 6100 ft | 284 kts | 192° |
| 2026-05-07 14:25 | 52.49271 | -1.92684 | 5301 ft | 293 kts | 217° |
| 2026-05-07 14:26 | 52.47876 | -1.95161 | 4487 ft | 302 kts | 239° |
| 2026-05-07 14:26 | 52.47150 | -1.98429 | 3655 ft | 310 kts | 255° |
| 2026-05-07 14:26 | 52.46828 | -2.01962 | 2946 ft | 315 kts | 269° |
| 2026-05-07 14:26 | 52.47140 | -2.05455 | 2739 ft | 303 kts | 282° |
| 2026-05-07 14:27 | 52.48000 | -2.08514 | 2573 ft | 293 kts | 306° |
| 2026-05-07 14:27 | 52.49526 | -2.10583 | 2490 ft | 282 kts | 333° |
| 2026-05-07 14:27 | 52.51377 | -2.11270 | 2468 ft | 268 kts | 2° |
| 2026-05-07 14:27 | 52.53130 | -2.10571 | 2478 ft | 254 kts | 22° |
| 2026-05-07 14:28 | 52.54708 | -2.09467 | 2466 ft | 240 kts | 25° |
| 2026-05-07 14:28 | 52.56170 | -2.08302 | 2458 ft | 227 kts | 36° |
| 2026-05-07 14:28 | 52.56948 | -2.07220 | 2475 ft | 217 kts | 45° |
| 2026-05-07 14:28 | 52.58200 | -2.04835 | 2471 ft | 200 kts | 62° |
| 2026-05-07 14:29 | 52.58677 | -2.03536 | 2480 ft | 192 kts | 61° |
| 2026-05-07 14:29 | 52.59568 | -2.01168 | 2468 ft | 175 kts | 60° |
| 2026-05-07 14:29 | 52.59995 | -2.00055 | 2470 ft | 165 kts | 61° |
| 2026-05-07 14:29 | 52.60587 | -1.98530 | 2467 ft | 155 kts | 60° |
| 2026-05-07 14:30 | 52.61158 | -1.97015 | 2475 ft | 154 kts | 60° |
| 2026-05-07 14:30 | 52.61699 | -1.95564 | 2480 ft | 145 kts | 63° |
| 2026-05-07 14:30 | 52.61945 | -1.94046 | 2461 ft | 136 kts | 107° |
| 2026-05-07 14:30 | 52.61354 | -1.92948 | 2520 ft | 132 kts | 149° |
| 2026-05-07 14:31 | 52.60650 | -1.92038 | 2475 ft | 125 kts | 134° |
| 2026-05-07 14:31 | 52.60009 | -1.91127 | 2468 ft | 121 kts | 143° |
| 2026-05-07 14:31 | 52.59303 | -1.90310 | 2490 ft | 126 kts | 145° |
| 2026-05-07 14:31 | 52.58587 | -1.89501 | 2482 ft | 123 kts | 146° |
| 2026-05-07 14:32 | 52.57885 | -1.88715 | 2480 ft | 121 kts | 145° |
| 2026-05-07 14:32 | 52.57191 | -1.87941 | 2481 ft | 119 kts | 146° |
| 2026-05-07 14:32 | 52.56506 | -1.87178 | 2487 ft | 120 kts | 146° |
| 2026-05-07 14:32 | 52.55816 | -1.86411 | 2487 ft | 120 kts | 146° |
| 2026-05-07 14:33 | 52.55112 | -1.85627 | 2453 ft | 126 kts | 146° |
| 2026-05-07 14:33 | 52.54380 | -1.84813 | 2278 ft | 126 kts | 146° |
| 2026-05-07 14:33 | 52.53667 | -1.84020 | 2107 ft | 122 kts | 146° |
| 2026-05-07 14:33 | 52.52979 | -1.83253 | 1942 ft | 119 kts | 146° |
| 2026-05-07 14:34 | 52.52287 | -1.82484 | 1792 ft | 122 kts | 145° |
| 2026-05-07 14:34 | 52.51586 | -1.81703 | 1628 ft | 122 kts | 145° |
| 2026-05-07 14:34 | 52.50893 | -1.80933 | 1457 ft | 118 kts | 145° |
| 2026-05-07 14:34 | 52.50211 | -1.80172 | 1303 ft | 120 kts | 144° |
| 2026-05-07 14:35 | 52.49518 | -1.79403 | 1125 ft | 121 kts | 144° |
| 2026-05-07 14:35 | 52.48812 | -1.78617 | 956 ft | 122 kts | 143° |
| 2026-05-07 14:35 | 52.48119 | -1.77844 | 785 ft | 119 kts | 143° |
| 2026-05-07 14:35 | 52.47428 | -1.77080 | 622 ft | 120 kts | 143° |
| 2026-05-07 14:36 | 52.46844 | -1.76414 | 455 ft | 117 kts | 141° |
| 2026-05-07 14:36 | 52.46171 | -1.75675 | 328 ft | 117 kts | 140° |
| 2026-05-07 14:36 | 52.45549 | -1.74967 | 323 ft | 92 kts | 147° |
| 2026-05-07 14:36 | 52.45147 | -1.74536 | 328 ft | 40 kts | 146° |
| 2026-05-07 14:37 | 52.44974 | -1.74340 | 325 ft | 19 kts | 143° |
| 2026-05-07 14:37 | 52.44983 | -1.74014 | 320 ft | 14 kts | 75° |
| 2026-05-07 14:37 | 52.45010 | -1.73898 | 321 ft | 8 kts | 57° |
| 2026-05-07 14:38 | 52.45037 | -1.73834 | 321 ft | 8 kts | 56° |
| 2026-05-07 14:38 | 52.45076 | -1.73746 | 323 ft | 11 kts | 43° |
| 2026-05-07 14:38 | 52.45126 | -1.73659 | 323 ft | 12 kts | 55° |
| 2026-05-07 14:38 | 52.45173 | -1.73544 | 321 ft | 9 kts | 56° |
| 2026-05-07 14:39 | 52.45202 | -1.73475 | 321 ft | 7 kts | 57° |
| 2026-05-07 14:39 | 52.45207 | -1.73440 | 323 ft | 3 kts | 109° |
| 2026-05-07 14:39 | 52.45188 | -1.73412 | 322 ft | 2 kts | 140° |
| 2026-05-07 14:39 | 52.45171 | -1.73390 | 323 ft | 2 kts | 141° |
| 2026-05-07 14:40 | 52.45165 | -1.73381 | 322 ft | 1 kts | 141° |
| 2026-05-07 14:40 | 52.45164 | -1.73381 | 322 ft | 0 kts | 141° |